sensor_id;sensor_type;location;lat;lon;timestamp;pressure;altitude;pressure_sealevel;temperature;humidity
47742;BME280;33504;52.066;6.096;2024-02-21T00:00:27;102074.83;;;10.84;51.20
47742;BME280;33504;52.066;6.096;2024-02-21T00:02:54;102073.17;;;10.84;51.23
47742;BME280;33504;52.066;6.096;2024-02-21T00:05:21;102065.79;;;11.05;50.81
47742;BME280;33504;52.066;6.096;2024-02-21T00:07:48;102063.80;;;10.19;51.89
47742;BME280;33504;52.066;6.096;2024-02-21T00:10:15;102061.66;;;10.26;52.19
47742;BME280;33504;52.066;6.096;2024-02-21T00:12:42;102048.54;;;9.84;52.33
47742;BME280;33504;52.066;6.096;2024-02-21T00:15:10;102048.56;;;10.39;52.02
47742;BME280;33504;52.066;6.096;2024-02-21T00:17:37;102052.83;;;10.09;52.51
47742;BME280;33504;52.066;6.096;2024-02-21T00:20:05;102053.11;;;10.07;52.54
47742;BME280;33504;52.066;6.096;2024-02-21T00:22:33;102055.77;;;10.22;52.32
47742;BME280;33504;52.066;6.096;2024-02-21T00:25:00;102058.92;;;10.60;51.73
47742;BME280;33504;52.066;6.096;2024-02-21T00:27:27;102054.40;;;10.56;51.81
47742;BME280;33504;52.066;6.096;2024-02-21T00:29:55;102047.03;;;10.30;51.95
47742;BME280;33504;52.066;6.096;2024-02-21T00:32:22;102034.32;;;10.76;51.53
47742;BME280;33504;52.066;6.096;2024-02-21T00:34:49;102034.68;;;10.24;52.28
47742;BME280;33504;52.066;6.096;2024-02-21T00:37:16;102035.89;;;10.41;51.67
47742;BME280;33504;52.066;6.096;2024-02-21T00:39:43;102036.16;;;10.79;51.48
47742;BME280;33504;52.066;6.096;2024-02-21T00:42:11;102029.80;;;10.69;51.59
47742;BME280;33504;52.066;6.096;2024-02-21T00:44:38;102029.95;;;10.78;51.44
47742;BME280;33504;52.066;6.096;2024-02-21T00:47:05;102027.40;;;10.51;51.97
47742;BME280;33504;52.066;6.096;2024-02-21T00:49:32;102029.75;;;10.53;51.52
47742;BME280;33504;52.066;6.096;2024-02-21T00:51:59;102022.02;;;10.19;52.09
47742;BME280;33504;52.066;6.096;2024-02-21T00:54:26;102014.04;;;10.66;51.75
47742;BME280;33504;52.066;6.096;2024-02-21T00:56:53;102004.55;;;10.50;51.92
47742;BME280;33504;52.066;6.096;2024-02-21T00:59:20;101998.60;;;10.91;51.32
47742;BME280;33504;52.066;6.096;2024-02-21T01:01:47;101991.72;;;10.48;51.55
47742;BME280;33504;52.066;6.096;2024-02-21T01:04:14;101984.52;;;10.41;51.58
47742;BME280;33504;52.066;6.096;2024-02-21T01:06:41;101990.61;;;10.15;52.13
47742;BME280;33504;52.066;6.096;2024-02-21T01:09:08;101993.31;;;10.32;52.16
47742;BME280;33504;52.066;6.096;2024-02-21T01:11:36;101992.02;;;10.64;51.73
47742;BME280;33504;52.066;6.096;2024-02-21T01:14:03;101995.05;;;10.20;51.95
47742;BME280;33504;52.066;6.096;2024-02-21T01:16:30;101993.51;;;10.63;51.80
47742;BME280;33504;52.066;6.096;2024-02-21T01:18:57;101987.64;;;10.60;51.37
47742;BME280;33504;52.066;6.096;2024-02-21T01:21:24;101985.56;;;10.65;51.23
47742;BME280;33504;52.066;6.096;2024-02-21T01:23:51;101978.14;;;10.81;51.50
47742;BME280;33504;52.066;6.096;2024-02-21T01:26:18;101976.46;;;11.01;50.94
47742;BME280;33504;52.066;6.096;2024-02-21T01:28:45;101988.15;;;10.55;51.98
47742;BME280;33504;52.066;6.096;2024-02-21T01:31:13;101997.26;;;10.20;51.75
47742;BME280;33504;52.066;6.096;2024-02-21T01:33:39;102002.80;;;10.52;51.77
47742;BME280;33504;52.066;6.096;2024-02-21T01:36:06;101998.42;;;10.50;51.43
47742;BME280;33504;52.066;6.096;2024-02-21T01:38:34;101998.57;;;10.33;51.70
47742;BME280;33504;52.066;6.096;2024-02-21T01:41:01;102003.62;;;10.69;51.63
47742;BME280;33504;52.066;6.096;2024-02-21T01:43:28;102000.44;;;10.37;51.74
47742;BME280;33504;52.066;6.096;2024-02-21T01:45:56;102003.36;;;10.81;51.55
47742;BME280;33504;52.066;6.096;2024-02-21T01:48:25;101998.15;;;10.36;51.66
47742;BME280;33504;52.066;6.096;2024-02-21T01:50:54;101992.87;;;10.62;51.20
47742;BME280;33504;52.066;6.096;2024-02-21T01:53:25;101988.01;;;10.43;51.65
47742;BME280;33504;52.066;6.096;2024-02-21T01:55:54;101981.07;;;10.60;51.18
47742;BME280;33504;52.066;6.096;2024-02-21T01:58:22;101976.09;;;10.64;51.18
47742;BME280;33504;52.066;6.096;2024-02-21T02:00:50;101971.48;;;10.75;51.03
47742;BME280;33504;52.066;6.096;2024-02-21T02:03:17;101971.14;;;10.57;51.20
47742;BME280;33504;52.066;6.096;2024-02-21T02:05:44;101967.87;;;10.53;51.20
47742;BME280;33504;52.066;6.096;2024-02-21T02:08:12;101961.78;;;10.39;51.28
47742;BME280;33504;52.066;6.096;2024-02-21T02:10:41;101953.05;;;10.42;51.13
47742;BME280;33504;52.066;6.096;2024-02-21T02:13:08;101950.20;;;10.79;51.47
47742;BME280;33504;52.066;6.096;2024-02-21T02:15:39;101939.40;;;10.68;51.36
47742;BME280;33504;52.066;6.096;2024-02-21T02:18:06;101938.25;;;10.49;51.28
47742;BME280;33504;52.066;6.096;2024-02-21T02:20:34;101938.55;;;10.90;50.97
47742;BME280;33504;52.066;6.096;2024-02-21T02:23:07;101936.89;;;10.34;51.46
47742;BME280;33504;52.066;6.096;2024-02-21T02:25:34;101933.19;;;10.36;51.36
47742;BME280;33504;52.066;6.096;2024-02-21T02:28:02;101935.01;;;10.46;51.12
47742;BME280;33504;52.066;6.096;2024-02-21T02:30:32;101932.29;;;11.09;51.00
47742;BME280;33504;52.066;6.096;2024-02-21T02:32:59;101931.18;;;10.93;51.10
47742;BME280;33504;52.066;6.096;2024-02-21T02:35:25;101931.08;;;10.64;50.76
47742;BME280;33504;52.066;6.096;2024-02-21T02:37:53;101928.27;;;10.33;51.15
47742;BME280;33504;52.066;6.096;2024-02-21T02:40:20;101929.56;;;10.60;51.40
47742;BME280;33504;52.066;6.096;2024-02-21T02:42:47;101922.96;;;10.80;51.31
47742;BME280;33504;52.066;6.096;2024-02-21T02:45:14;101923.97;;;10.74;51.06
47742;BME280;33504;52.066;6.096;2024-02-21T02:47:41;101926.77;;;10.31;51.54
47742;BME280;33504;52.066;6.096;2024-02-21T02:50:09;101926.56;;;10.13;51.54
47742;BME280;33504;52.066;6.096;2024-02-21T02:52:37;101920.51;;;10.09;51.63
47742;BME280;33504;52.066;6.096;2024-02-21T02:55:05;101912.10;;;10.64;51.22
47742;BME280;33504;52.066;6.096;2024-02-21T02:57:32;101915.78;;;10.45;51.06
47742;BME280;33504;52.066;6.096;2024-02-21T02:59:59;101919.57;;;10.39;51.08
47742;BME280;33504;52.066;6.096;2024-02-21T03:02:26;101921.98;;;10.61;51.24
47742;BME280;33504;52.066;6.096;2024-02-21T03:04:54;101918.67;;;10.25;51.71
47742;BME280;33504;52.066;6.096;2024-02-21T03:07:21;101916.42;;;10.90;51.01
47742;BME280;33504;52.066;6.096;2024-02-21T03:09:48;101910.45;;;10.82;50.74
47742;BME280;33504;52.066;6.096;2024-02-21T03:12:15;101906.91;;;10.49;51.25
47742;BME280;33504;52.066;6.096;2024-02-21T03:14:42;101897.53;;;10.48;50.77
47742;BME280;33504;52.066;6.096;2024-02-21T03:17:09;101896.45;;;10.41;50.98
47742;BME280;33504;52.066;6.096;2024-02-21T03:19:36;101890.00;;;10.91;50.86
47742;BME280;33504;52.066;6.096;2024-02-21T03:22:04;101889.46;;;10.90;50.94
47742;BME280;33504;52.066;6.096;2024-02-21T03:24:31;101883.14;;;10.82;50.68
47742;BME280;33504;52.066;6.096;2024-02-21T03:26:58;101880.52;;;10.29;51.16
47742;BME280;33504;52.066;6.096;2024-02-21T03:29:26;101886.20;;;10.74;50.82
47742;BME280;33504;52.066;6.096;2024-02-21T03:31:53;101888.32;;;10.78;50.85
47742;BME280;33504;52.066;6.096;2024-02-21T03:34:20;101892.89;;;10.79;51.15
47742;BME280;33504;52.066;6.096;2024-02-21T03:36:47;101889.23;;;10.49;50.85
47742;BME280;33504;52.066;6.096;2024-02-21T03:39:15;101887.89;;;11.07;50.61
47742;BME280;33504;52.066;6.096;2024-02-21T03:41:41;101886.65;;;10.41;51.21
47742;BME280;33504;52.066;6.096;2024-02-21T03:44:09;101878.62;;;10.78;51.04
47742;BME280;33504;52.066;6.096;2024-02-21T03:46:36;101873.68;;;10.85;50.90
47742;BME280;33504;52.066;6.096;2024-02-21T03:49:03;101872.71;;;10.25;51.11
47742;BME280;33504;52.066;6.096;2024-02-21T03:51:30;101864.69;;;10.51;50.56
47742;BME280;33504;52.066;6.096;2024-02-21T03:53:57;101860.86;;;10.56;51.20
47742;BME280;33504;52.066;6.096;2024-02-21T03:56:24;101858.79;;;10.59;51.23
47742;BME280;33504;52.066;6.096;2024-02-21T03:58:51;101859.70;;;10.27;51.04
47742;BME280;33504;52.066;6.096;2024-02-21T04:01:19;101856.91;;;10.39;51.14
47742;BME280;33504;52.066;6.096;2024-02-21T04:03:46;101856.96;;;10.59;51.11
47742;BME280;33504;52.066;6.096;2024-02-21T04:06:13;101858.93;;;10.55;51.25
47742;BME280;33504;52.066;6.096;2024-02-21T04:08:40;101857.28;;;10.69;51.26
47742;BME280;33504;52.066;6.096;2024-02-21T04:11:07;101855.87;;;10.60;51.22
47742;BME280;33504;52.066;6.096;2024-02-21T04:13:34;101850.65;;;10.94;50.75
47742;BME280;33504;52.066;6.096;2024-02-21T04:16:01;101844.23;;;10.59;51.24
47742;BME280;33504;52.066;6.096;2024-02-21T04:18:28;101850.97;;;10.66;51.10
47742;BME280;33504;52.066;6.096;2024-02-21T04:20:55;101854.73;;;10.67;51.06
47742;BME280;33504;52.066;6.096;2024-02-21T04:23:22;101857.77;;;10.50;50.72
47742;BME280;33504;52.066;6.096;2024-02-21T04:25:49;101857.67;;;10.57;51.18
47742;BME280;33504;52.066;6.096;2024-02-21T04:28:16;101858.40;;;10.05;51.29
47742;BME280;33504;52.066;6.096;2024-02-21T04:30:43;101852.87;;;10.51;51.13
47742;BME280;33504;52.066;6.096;2024-02-21T04:33:10;101846.14;;;10.81;51.00
47742;BME280;33504;52.066;6.096;2024-02-21T04:35:37;101839.72;;;10.27;51.04
47742;BME280;33504;52.066;6.096;2024-02-21T04:38:04;101838.13;;;10.67;51.19
47742;BME280;33504;52.066;6.096;2024-02-21T04:40:32;101842.51;;;10.39;51.34
47742;BME280;33504;52.066;6.096;2024-02-21T04:42:59;101842.78;;;10.68;51.19
47742;BME280;33504;52.066;6.096;2024-02-21T04:45:26;101845.33;;;10.75;50.91
47742;BME280;33504;52.066;6.096;2024-02-21T04:47:53;101837.94;;;10.58;50.93
47742;BME280;33504;52.066;6.096;2024-02-21T04:50:20;101838.35;;;10.53;50.76
47742;BME280;33504;52.066;6.096;2024-02-21T04:52:47;101835.53;;;10.46;51.33
47742;BME280;33504;52.066;6.096;2024-02-21T04:55:14;101834.01;;;9.90;51.83
47742;BME280;33504;52.066;6.096;2024-02-21T04:57:41;101828.96;;;10.09;51.60
47742;BME280;33504;52.066;6.096;2024-02-21T05:00:10;101823.20;;;10.56;51.20
47742;BME280;33504;52.066;6.096;2024-02-21T05:02:37;101822.40;;;10.00;51.18
47742;BME280;33504;52.066;6.096;2024-02-21T05:05:04;101821.07;;;9.93;51.38
47742;BME280;33504;52.066;6.096;2024-02-21T05:07:31;101811.56;;;10.14;51.39
47742;BME280;33504;52.066;6.096;2024-02-21T05:09:58;101809.98;;;10.57;50.63
47742;BME280;33504;52.066;6.096;2024-02-21T05:12:25;101807.97;;;10.81;50.60
47742;BME280;33504;52.066;6.096;2024-02-21T05:14:52;101807.03;;;10.35;50.81
47742;BME280;33504;52.066;6.096;2024-02-21T05:17:19;101807.79;;;10.39;51.29
47742;BME280;33504;52.066;6.096;2024-02-21T05:19:46;101808.36;;;10.03;50.95
47742;BME280;33504;52.066;6.096;2024-02-21T05:22:14;101802.90;;;10.21;51.21
47742;BME280;33504;52.066;6.096;2024-02-21T05:24:41;101804.32;;;9.79;51.51
47742;BME280;33504;52.066;6.096;2024-02-21T05:27:08;101801.40;;;10.29;50.88
47742;BME280;33504;52.066;6.096;2024-02-21T05:29:35;101798.85;;;10.59;50.78
47742;BME280;33504;52.066;6.096;2024-02-21T05:32:03;101798.70;;;10.66;50.63
47742;BME280;33504;52.066;6.096;2024-02-21T05:34:30;101796.79;;;10.39;50.72
47742;BME280;33504;52.066;6.096;2024-02-21T05:36:57;101794.09;;;10.62;50.59
47742;BME280;33504;52.066;6.096;2024-02-21T05:39:25;101789.17;;;10.81;50.45
47742;BME280;33504;52.066;6.096;2024-02-21T05:41:52;101784.13;;;10.01;50.93
47742;BME280;33504;52.066;6.096;2024-02-21T05:44:19;101787.21;;;9.84;51.51
47742;BME280;33504;52.066;6.096;2024-02-21T05:46:46;101776.48;;;9.94;51.47
47742;BME280;33504;52.066;6.096;2024-02-21T05:49:14;101772.25;;;10.27;51.14
47742;BME280;33504;52.066;6.096;2024-02-21T05:51:41;101767.20;;;10.48;50.90
47742;BME280;33504;52.066;6.096;2024-02-21T05:54:08;101763.25;;;10.44;50.82
47742;BME280;33504;52.066;6.096;2024-02-21T05:56:35;101758.93;;;10.79;50.19
47742;BME280;33504;52.066;6.096;2024-02-21T05:59:03;101747.68;;;10.16;50.83
47742;BME280;33504;52.066;6.096;2024-02-21T06:01:30;101744.60;;;10.27;51.06
47742;BME280;33504;52.066;6.096;2024-02-21T06:03:57;101735.83;;;10.71;50.39
47742;BME280;33504;52.066;6.096;2024-02-21T06:06:24;101730.79;;;10.47;50.30
47742;BME280;33504;52.066;6.096;2024-02-21T06:08:51;101730.81;;;10.31;50.55
47742;BME280;33504;52.066;6.096;2024-02-21T06:11:19;101726.80;;;10.29;50.82
47742;BME280;33504;52.066;6.096;2024-02-21T06:13:46;101721.87;;;9.77;51.06
47742;BME280;33504;52.066;6.096;2024-02-21T06:16:13;101729.72;;;9.67;51.83
47742;BME280;33504;52.066;6.096;2024-02-21T06:18:40;101732.36;;;9.95;51.85
47742;BME280;33504;52.066;6.096;2024-02-21T06:21:07;101727.92;;;10.13;51.17
47742;BME280;33504;52.066;6.096;2024-02-21T06:23:34;101721.17;;;10.06;51.27
47742;BME280;33504;52.066;6.096;2024-02-21T06:26:04;101714.76;;;10.61;50.47
47742;BME280;33504;52.066;6.096;2024-02-21T06:28:30;101709.50;;;10.48;50.65
47742;BME280;33504;52.066;6.096;2024-02-21T06:30:57;101710.14;;;10.46;50.44
47742;BME280;33504;52.066;6.096;2024-02-21T06:33:24;101707.97;;;10.62;50.34
47742;BME280;33504;52.066;6.096;2024-02-21T06:35:51;101709.53;;;9.98;50.66
47742;BME280;33504;52.066;6.096;2024-02-21T06:38:19;101712.62;;;10.31;50.40
47742;BME280;33504;52.066;6.096;2024-02-21T06:40:47;101716.09;;;10.13;51.06
47742;BME280;33504;52.066;6.096;2024-02-21T06:43:14;101714.52;;;10.38;50.71
47742;BME280;33504;52.066;6.096;2024-02-21T06:45:41;101717.54;;;10.15;50.70
47742;BME280;33504;52.066;6.096;2024-02-21T06:48:08;101716.04;;;10.34;50.67
47742;BME280;33504;52.066;6.096;2024-02-21T06:50:35;101713.44;;;10.53;50.40
47742;BME280;33504;52.066;6.096;2024-02-21T06:53:03;101709.92;;;10.02;50.38
47742;BME280;33504;52.066;6.096;2024-02-21T06:55:30;101711.41;;;10.10;50.31
47742;BME280;33504;52.066;6.096;2024-02-21T06:57:57;101713.32;;;10.34;50.58
47742;BME280;33504;52.066;6.096;2024-02-21T07:00:25;101711.13;;;10.23;50.68
47742;BME280;33504;52.066;6.096;2024-02-21T07:02:52;101710.12;;;10.42;50.50
47742;BME280;33504;52.066;6.096;2024-02-21T07:05:19;101710.86;;;10.09;51.04
47742;BME280;33504;52.066;6.096;2024-02-21T07:07:46;101705.97;;;10.67;50.06
47742;BME280;33504;52.066;6.096;2024-02-21T07:10:13;101706.99;;;9.77;50.73
47742;BME280;33504;52.066;6.096;2024-02-21T07:12:41;101704.72;;;10.40;50.34
47742;BME280;33504;52.066;6.096;2024-02-21T07:15:08;101708.46;;;10.16;50.58
47742;BME280;33504;52.066;6.096;2024-02-21T07:17:35;101701.47;;;10.00;51.01
47742;BME280;33504;52.066;6.096;2024-02-21T07:20:03;101696.41;;;10.03;51.01
47742;BME280;33504;52.066;6.096;2024-02-21T07:22:30;101689.59;;;9.80;51.28
47742;BME280;33504;52.066;6.096;2024-02-21T07:24:58;101688.08;;;10.43;50.64
47742;BME280;33504;52.066;6.096;2024-02-21T07:27:25;101687.29;;;9.94;50.62
47742;BME280;33504;52.066;6.096;2024-02-21T07:29:52;101690.46;;;9.88;50.88
47742;BME280;33504;52.066;6.096;2024-02-21T07:32:20;101686.14;;;10.42;50.31
47742;BME280;33504;52.066;6.096;2024-02-21T07:34:47;101683.70;;;9.84;50.81
47742;BME280;33504;52.066;6.096;2024-02-21T07:37:14;101683.34;;;10.66;50.01
47742;BME280;33504;52.066;6.096;2024-02-21T07:39:41;101685.63;;;10.66;49.79
47742;BME280;33504;52.066;6.096;2024-02-21T07:42:08;101679.54;;;10.66;50.03
47742;BME280;33504;52.066;6.096;2024-02-21T07:44:35;101679.50;;;10.57;49.55
47742;BME280;33504;52.066;6.096;2024-02-21T07:47:03;101677.01;;;10.85;49.58
47742;BME280;33504;52.066;6.096;2024-02-21T07:49:30;101675.94;;;10.42;49.73
47742;BME280;33504;52.066;6.096;2024-02-21T07:51:57;101667.51;;;10.12;50.17
47742;BME280;33504;52.066;6.096;2024-02-21T07:54:24;101667.01;;;10.30;50.44
47742;BME280;33504;52.066;6.096;2024-02-21T07:56:52;101658.65;;;10.44;49.76
47742;BME280;33504;52.066;6.096;2024-02-21T07:59:18;101652.65;;;10.14;50.16
47742;BME280;33504;52.066;6.096;2024-02-21T08:01:45;101644.71;;;10.57;49.83
47742;BME280;33504;52.066;6.096;2024-02-21T08:04:13;101640.04;;;10.22;49.92
47742;BME280;33504;52.066;6.096;2024-02-21T08:06:41;101632.32;;;9.71;50.52
47742;BME280;33504;52.066;6.096;2024-02-21T08:09:08;101623.07;;;10.08;50.60
47742;BME280;33504;52.066;6.096;2024-02-21T08:11:35;101619.36;;;10.18;50.44
47742;BME280;33504;52.066;6.096;2024-02-21T08:14:03;101614.76;;;10.52;50.00
47742;BME280;33504;52.066;6.096;2024-02-21T08:16:30;101611.55;;;10.60;50.09
47742;BME280;33504;52.066;6.096;2024-02-21T08:18:58;101607.92;;;9.93;50.86
47742;BME280;33504;52.066;6.096;2024-02-21T08:21:25;101606.82;;;10.32;50.26
47742;BME280;33504;52.066;6.096;2024-02-21T08:23:52;101604.77;;;10.01;50.61
47742;BME280;33504;52.066;6.096;2024-02-21T08:26:19;101606.29;;;10.16;50.48
47742;BME280;33504;52.066;6.096;2024-02-21T08:28:46;101609.61;;;10.20;50.41
47742;BME280;33504;52.066;6.096;2024-02-21T08:31:19;101610.78;;;10.14;50.05
47742;BME280;33504;52.066;6.096;2024-02-21T08:33:46;101600.45;;;10.69;49.55
47742;BME280;33504;52.066;6.096;2024-02-21T08:36:17;101596.00;;;10.32;50.47
47742;BME280;33504;52.066;6.096;2024-02-21T08:38:44;101590.68;;;10.35;50.04
47742;BME280;33504;52.066;6.096;2024-02-21T08:41:11;101588.74;;;10.31;49.99
47742;BME280;33504;52.066;6.096;2024-02-21T08:43:39;101581.48;;;10.30;50.28
47742;BME280;33504;52.066;6.096;2024-02-21T08:46:06;101591.81;;;9.68;50.89
47742;BME280;33504;52.066;6.096;2024-02-21T08:48:33;101577.91;;;9.90;50.61
47742;BME280;33504;52.066;6.096;2024-02-21T08:51:00;101576.09;;;9.82;50.71
47742;BME280;33504;52.066;6.096;2024-02-21T08:53:28;101568.35;;;9.83;51.16
47742;BME280;33504;52.066;6.096;2024-02-21T08:55:54;101569.45;;;10.64;49.95
47742;BME280;33504;52.066;6.096;2024-02-21T08:58:22;101561.57;;;10.01;50.50
47742;BME280;33504;52.066;6.096;2024-02-21T09:00:49;101557.61;;;10.26;50.28
47742;BME280;33504;52.066;6.096;2024-02-21T09:03:16;101558.62;;;10.24;50.14
47742;BME280;33504;52.066;6.096;2024-02-21T09:05:44;101545.93;;;10.23;50.36
47742;BME280;33504;52.066;6.096;2024-02-21T09:08:11;101550.04;;;9.75;50.87
47742;BME280;33504;52.066;6.096;2024-02-21T09:10:39;101552.13;;;9.96;50.58
47742;BME280;33504;52.066;6.096;2024-02-21T09:13:07;101542.52;;;9.92;50.67
47742;BME280;33504;52.066;6.096;2024-02-21T09:15:34;101538.63;;;9.61;50.60
47742;BME280;33504;52.066;6.096;2024-02-21T09:18:01;101542.92;;;10.45;49.99
47742;BME280;33504;52.066;6.096;2024-02-21T09:20:29;101550.50;;;10.47;49.42
47742;BME280;33504;52.066;6.096;2024-02-21T09:22:56;101551.60;;;10.83;49.13
47742;BME280;33504;52.066;6.096;2024-02-21T09:25:23;101555.16;;;10.43;49.36
47742;BME280;33504;52.066;6.096;2024-02-21T09:27:50;101548.80;;;10.75;48.97
47742;BME280;33504;52.066;6.096;2024-02-21T09:30:18;101554.83;;;10.79;48.66
47742;BME280;33504;52.066;6.096;2024-02-21T09:32:45;101550.12;;;11.08;48.54
47742;BME280;33504;52.066;6.096;2024-02-21T09:35:12;101548.99;;;11.01;48.11
47742;BME280;33504;52.066;6.096;2024-02-21T09:37:39;101540.85;;;10.46;48.87
47742;BME280;33504;52.066;6.096;2024-02-21T09:40:08;101532.43;;;10.60;49.36
47742;BME280;33504;52.066;6.096;2024-02-21T09:42:37;101523.68;;;10.66;49.32
47742;BME280;33504;52.066;6.096;2024-02-21T09:45:08;101523.20;;;10.11;49.39
47742;BME280;33504;52.066;6.096;2024-02-21T09:47:47;101517.87;;;10.49;48.60
47742;BME280;33504;52.066;6.096;2024-02-21T09:50:17;101515.30;;;9.96;49.57
47742;BME280;33504;52.066;6.096;2024-02-21T09:52:46;101506.39;;;10.30;49.44
47742;BME280;33504;52.066;6.096;2024-02-21T09:55:15;101504.14;;;10.60;49.24
47742;BME280;33504;52.066;6.096;2024-02-21T09:57:44;101503.83;;;10.79;49.20
47742;BME280;33504;52.066;6.096;2024-02-21T10:00:12;101499.70;;;10.88;48.88
47742;BME280;33504;52.066;6.096;2024-02-21T10:02:39;101489.42;;;10.91;48.58
47742;BME280;33504;52.066;6.096;2024-02-21T10:05:07;101496.41;;;10.71;48.56
47742;BME280;33504;52.066;6.096;2024-02-21T10:07:34;101488.31;;;10.92;48.14
47742;BME280;33504;52.066;6.096;2024-02-21T10:10:02;101487.50;;;10.66;48.24
47742;BME280;33504;52.066;6.096;2024-02-21T10:12:29;101482.77;;;11.65;47.56
47742;BME280;33504;52.066;6.096;2024-02-21T10:15:05;101478.16;;;10.78;48.04
47742;BME280;33504;52.066;6.096;2024-02-21T10:17:32;101477.05;;;11.40;47.59
47742;BME280;33504;52.066;6.096;2024-02-21T10:20:07;101469.49;;;10.97;47.75
47742;BME280;33504;52.066;6.096;2024-02-21T10:22:35;101461.88;;;11.14;47.65
47742;BME280;33504;52.066;6.096;2024-02-21T10:25:07;101447.60;;;10.69;48.31
47742;BME280;33504;52.066;6.096;2024-02-21T10:27:34;101445.18;;;11.18;47.59
47742;BME280;33504;52.066;6.096;2024-02-21T10:30:01;101431.58;;;11.05;47.91
47742;BME280;33504;52.066;6.096;2024-02-21T10:32:29;101427.34;;;11.26;47.94
47742;BME280;33504;52.066;6.096;2024-02-21T10:35:01;101422.82;;;10.93;48.22
47742;BME280;33504;52.066;6.096;2024-02-21T10:37:28;101425.98;;;10.13;49.71
47742;BME280;33504;52.066;6.096;2024-02-21T10:39:55;101418.94;;;10.50;49.80
47742;BME280;33504;52.066;6.096;2024-02-21T10:42:22;101424.39;;;10.48;49.62
47742;BME280;33504;52.066;6.096;2024-02-21T10:44:51;101412.45;;;10.97;49.16
47742;BME280;33504;52.066;6.096;2024-02-21T10:47:19;101408.84;;;10.85;49.58
47742;BME280;33504;52.066;6.096;2024-02-21T10:49:54;101407.83;;;10.15;50.27
47742;BME280;33504;52.066;6.096;2024-02-21T10:52:31;101401.46;;;10.07;51.13
47742;BME280;33504;52.066;6.096;2024-02-21T10:55:04;101391.30;;;10.27;50.43
47742;BME280;33504;52.066;6.096;2024-02-21T10:57:31;101383.77;;;10.02;51.90
47742;BME280;33504;52.066;6.096;2024-02-21T10:59:59;101381.09;;;10.04;52.05
47742;BME280;33504;52.066;6.096;2024-02-21T11:02:26;101379.48;;;9.83;52.38
47742;BME280;33504;52.066;6.096;2024-02-21T11:04:55;101377.59;;;9.55;53.01
47742;BME280;33504;52.066;6.096;2024-02-21T11:07:24;101373.03;;;9.40;53.52
47742;BME280;33504;52.066;6.096;2024-02-21T11:09:52;101368.67;;;9.44;53.57
47742;BME280;33504;52.066;6.096;2024-02-21T11:12:21;101369.38;;;9.86;52.92
47742;BME280;33504;52.066;6.096;2024-02-21T11:14:48;101363.81;;;10.41;52.14
47742;BME280;33504;52.066;6.096;2024-02-21T11:17:15;101352.34;;;9.82;53.03
47742;BME280;33504;52.066;6.096;2024-02-21T11:19:42;101347.44;;;10.27;52.06
47742;BME280;33504;52.066;6.096;2024-02-21T11:22:15;101329.02;;;10.32;51.85
47742;BME280;33504;52.066;6.096;2024-02-21T11:24:42;101310.01;;;9.74;53.07
47742;BME280;33504;52.066;6.096;2024-02-21T11:27:12;101288.98;;;9.88;52.84
47742;BME280;33504;52.066;6.096;2024-02-21T11:29:40;101265.85;;;10.18;52.28
47742;BME280;33504;52.066;6.096;2024-02-21T11:32:10;101264.84;;;10.41;52.33
47742;BME280;33504;52.066;6.096;2024-02-21T11:34:37;101255.48;;;10.46;51.60
47742;BME280;33504;52.066;6.096;2024-02-21T11:37:13;101274.06;;;9.97;52.61
47742;BME280;33504;52.066;6.096;2024-02-21T11:39:41;101270.87;;;9.87;52.62
47742;BME280;33504;52.066;6.096;2024-02-21T11:42:09;101279.17;;;10.15;52.11
47742;BME280;33504;52.066;6.096;2024-02-21T11:44:37;101284.14;;;10.17;51.72
47742;BME280;33504;52.066;6.096;2024-02-21T11:47:05;101291.71;;;10.48;51.04
47742;BME280;33504;52.066;6.096;2024-02-21T11:49:37;101285.05;;;10.76;50.42
47742;BME280;33504;52.066;6.096;2024-02-21T11:52:05;101268.31;;;11.04;50.01
47742;BME280;33504;52.066;6.096;2024-02-21T11:54:33;101260.85;;;10.56;50.45
47742;BME280;33504;52.066;6.096;2024-02-21T11:57:01;101251.06;;;11.30;49.38
47742;BME280;33504;52.066;6.096;2024-02-21T11:59:30;101241.73;;;10.95;49.32
47742;BME280;33504;52.066;6.096;2024-02-21T12:01:58;101239.07;;;10.54;50.18
47742;BME280;33504;52.066;6.096;2024-02-21T12:04:26;101251.04;;;10.18;50.87
47742;BME280;33504;52.066;6.096;2024-02-21T12:06:53;101262.37;;;10.61;49.50
47742;BME280;33504;52.066;6.096;2024-02-21T12:09:22;101247.19;;;10.61;49.54
47742;BME280;33504;52.066;6.096;2024-02-21T12:11:57;101257.28;;;10.40;49.54
47742;BME280;33504;52.066;6.096;2024-02-21T12:14:25;101239.26;;;10.20;50.01
47742;BME280;33504;52.066;6.096;2024-02-21T12:16:54;101248.71;;;9.97;50.38
47742;BME280;33504;52.066;6.096;2024-02-21T12:19:21;101228.82;;;9.93;50.88
47742;BME280;33504;52.066;6.096;2024-02-21T12:21:49;101222.94;;;10.77;49.66
47742;BME280;33504;52.066;6.096;2024-02-21T12:24:21;101211.93;;;10.51;49.81
47742;BME280;33504;52.066;6.096;2024-02-21T12:26:48;101195.79;;;10.25;50.29
47742;BME280;33504;52.066;6.096;2024-02-21T12:29:15;101191.94;;;10.87;49.11
47742;BME280;33504;52.066;6.096;2024-02-21T12:31:42;101174.92;;;10.09;50.25
47742;BME280;33504;52.066;6.096;2024-02-21T12:34:09;101152.18;;;10.75;49.40
47742;BME280;33504;52.066;6.096;2024-02-21T12:36:41;101142.80;;;10.50;49.72
47742;BME280;33504;52.066;6.096;2024-02-21T12:39:09;101115.45;;;10.77;49.49
47742;BME280;33504;52.066;6.096;2024-02-21T12:41:37;101100.30;;;11.01;48.89
47742;BME280;33504;52.066;6.096;2024-02-21T12:44:05;101105.63;;;10.92;48.86
47742;BME280;33504;52.066;6.096;2024-02-21T12:46:32;101094.90;;;10.93;48.81
47742;BME280;33504;52.066;6.096;2024-02-21T12:49:00;101080.86;;;10.66;48.80
47742;BME280;33504;52.066;6.096;2024-02-21T12:51:27;101073.25;;;11.30;47.79